Time;durP1;ratioP1;P1;durP2;ratioP2;P2;SDS_P1;SDS_P2;PMS_P1;PMS_P2;Temp;Humidity;BMP_temperature;BMP_pressure;BME280_temperature;BME280_humidity;BME280_pressure;Samples;Min_cycle;Max_cycle;Signal;HPM_P1;HPM_P2
2023/06/17 00:02:07;;;;;;;;;18.00;16.33;;;;;27.47;35.65;69668.78;4870218;28;45477;-79
2023/06/17 00:04:32;;;;;;;;;19.67;18.67;;;;;27.43;35.84;69685.75;4877635;28;45963;-79
2023/06/17 00:06:58;;;;;;;;;18.33;16.33;;;;;27.30;36.11;69651.19;4877193;28;45556;-79
2023/06/17 00:09:25;;;;;;;;;24.33;20.33;;;;;27.22;35.64;69671.53;4877628;29;46992;-78
2023/06/17 00:11:52;;;;;;;;;18.67;16.67;;;;;27.34;35.18;69656.56;4864542;28;45807;-80
2023/06/17 00:14:20;;;;;;;;;19.00;19.00;;;;;27.24;35.22;69603.91;4877322;28;45580;-80
2023/06/17 00:16:48;;;;;;;;;22.00;19.00;;;;;27.36;35.55;69650.81;4860821;28;45553;-80
2023/06/17 00:19:15;;;;;;;;;17.00;17.00;;;;;27.29;35.04;69669.63;4877200;29;45472;-80
2023/06/17 00:21:52;;;;;;;;;16.67;15.00;;;;;27.35;35.50;69644.19;4876987;29;45434;-80
2023/06/17 00:24:18;;;;;;;;;18.00;18.00;;;;;27.32;35.52;69659.63;4876646;28;46651;-80
2023/06/17 00:26:44;;;;;;;;;19.33;18.00;;;;;27.29;36.12;69628.28;4876997;28;45575;-80
2023/06/17 00:29:09;;;;;;;;;19.33;15.33;;;;;27.25;36.19;69624.09;4860607;28;46076;-80
2023/06/17 00:31:34;;;;;;;;;22.33;20.00;;;;;27.22;36.20;69584.63;4877632;29;45471;-80
2023/06/17 00:34:00;;;;;;;;;19.00;17.67;;;;;27.19;35.34;69670.66;4877975;28;45494;-80
2023/06/17 00:36:26;;;;;;;;;18.33;17.33;;;;;27.07;35.51;69637.91;4877499;29;45391;-80
2023/06/17 00:38:51;;;;;;;;;20.00;17.67;;;;;27.11;35.60;69724.13;4876297;28;47414;-80
2023/06/17 00:41:17;;;;;;;;;18.00;18.00;;;;;27.17;36.02;69615.13;4876496;29;45559;-80
2023/06/17 00:43:43;;;;;;;;;17.67;17.33;;;;;27.17;35.47;69636.88;4875647;28;45580;-80
2023/06/17 00:46:12;;;;;;;;;17.00;16.00;;;;;27.17;35.60;69647.13;4877344;28;45847;-80
2023/06/17 00:48:37;;;;;;;;;19.67;17.00;;;;;27.14;34.86;69597.41;4877334;29;45515;-80
2023/06/17 00:51:04;;;;;;;;;17.67;16.67;;;;;27.03;35.18;69644.59;4877284;28;45789;-80
2023/06/17 00:53:31;;;;;;;;;16.33;13.67;;;;;27.17;35.26;69671.56;4859522;29;45595;-80
2023/06/17 00:55:58;;;;;;;;;14.67;14.67;;;;;27.17;35.26;69636.88;4875355;28;45449;-79
2023/06/17 00:58:26;;;;;;;;;14.33;14.33;;;;;27.12;35.03;69725.94;4876397;28;47704;-80
2023/06/17 05:02:15;;;;;;;;;14.00;13.00;;;;;25.77;36.83;69473.41;5088495;23;46622;-96
2023/06/17 05:04:40;;;;;;;;;17.67;14.33;;;;;26.60;36.87;69561.91;5011514;22;46975;-80
2023/06/17 05:07:06;;;;;;;;;11.00;11.00;;;;;26.65;37.31;69562.44;4981231;28;45492;-80
2023/06/17 05:09:31;;;;;;;;;11.00;11.00;;;;;26.53;36.73;69518.28;4996182;28;45438;-78
2023/06/17 05:11:56;;;;;;;;;11.67;11.67;;;;;26.67;37.00;69556.09;4996419;28;45485;-79
2023/06/17 05:14:22;;;;;;;;;10.00;10.00;;;;;26.68;36.68;69538.28;4999381;28;45408;-80
2023/06/17 05:16:47;;;;;;;;;13.67;13.00;;;;;26.68;36.83;69517.19;5000658;28;45908;-81
2023/06/17 05:19:13;;;;;;;;;14.00;12.67;;;;;26.65;36.67;69559.72;4996696;28;45688;-81
2023/06/17 05:21:38;;;;;;;;;11.33;11.33;;;;;26.65;37.15;69583.56;4994796;28;45839;-81
2023/06/17 05:24:04;;;;;;;;;12.67;12.67;;;;;26.60;37.27;69553.78;4982673;28;45864;-81
2023/06/17 05:26:29;;;;;;;;;10.33;10.33;;;;;26.42;36.97;69513.28;4997115;28;45497;-81
2023/06/17 05:28:55;;;;;;;;;12.67;12.67;;;;;26.66;37.32;69531.06;4996107;28;45595;-81
2023/06/17 05:31:20;;;;;;;;;12.33;11.00;;;;;26.71;36.83;69520.16;4996078;28;46200;-81
2023/06/17 05:33:46;;;;;;;;;12.67;11.67;;;;;26.48;37.42;69599.72;4995019;28;45823;-81
2023/06/17 05:36:11;;;;;;;;;11.33;11.33;;;;;26.80;36.93;69500.44;4995172;28;47119;-81
2023/06/17 05:38:36;;;;;;;;;11.67;11.67;;;;;26.82;36.95;69600.53;4995092;28;45515;-81
2023/06/17 05:41:02;;;;;;;;;12.33;12.33;;;;;26.83;36.96;69558.28;4979710;28;45542;-81
2023/06/17 05:43:28;;;;;;;;;12.00;10.00;;;;;26.38;36.77;69463.00;5008242;28;45487;-81
2023/06/17 05:45:53;;;;;;;;;11.33;11.00;;;;;26.69;36.67;69572.03;4997705;28;45436;-80
2023/06/17 05:48:18;;;;;;;;;10.33;9.33;;;;;26.83;37.07;69569.75;4994953;28;45721;-82
2023/06/17 05:50:44;;;;;;;;;11.67;11.67;;;;;26.84;36.91;69541.09;4995244;28;45957;-80
2023/06/17 05:53:09;;;;;;;;;13.50;12.00;;;;;26.83;37.01;69529.06;4995145;28;45502;-82
2023/06/17 05:55:34;;;;;;;;;11.67;11.67;;;;;26.85;37.11;69585.09;5001525;28;45802;-82
2023/06/17 05:58:00;;;;;;;;;12.67;12.67;;;;;26.85;37.10;69492.81;5002249;28;45511;-82
2023/06/17 06:00:25;;;;;;;;;10.00;10.00;;;;;26.90;36.93;69536.78;4996061;28;45497;-80
2023/06/17 06:02:51;;;;;;;;;12.67;12.33;;;;;26.92;37.39;69534.34;5001326;28;45343;-80
2023/06/17 06:05:17;;;;;;;;;13.00;11.67;;;;;26.98;37.49;69581.03;4996743;28;45416;-81
2023/06/17 06:07:43;;;;;;;;;13.00;13.00;;;;;27.04;36.93;69536.59;5003740;28;45466;-80
2023/06/17 06:10:10;;;;;;;;;10.00;10.00;;;;;27.06;36.68;69544.41;4987078;28;47036;-80
2023/06/17 06:12:36;;;;;;;;;11.00;11.00;;;;;26.85;36.62;69534.13;4988676;28;45361;-80
2023/06/17 06:15:01;;;;;;;;;12.33;11.00;;;;;27.13;36.97;69552.75;4993083;28;45483;-80
2023/06/17 06:17:27;;;;;;;;;14.00;12.00;;;;;27.17;36.61;69634.16;4992431;28;45559;-80
2023/06/17 06:19:53;;;;;;;;;16.00;15.67;;;;;27.17;36.05;69612.41;4995172;28;46138;-80
2023/06/17 06:22:18;;;;;;;;;13.33;13.00;;;;;26.80;36.22;69562.88;5003202;28;45410;-82
2023/06/17 06:24:44;;;;;;;;;12.67;12.67;;;;;27.17;35.96;69528.25;4994045;28;45497;-82
2023/06/17 06:27:09;;;;;;;;;13.00;11.67;;;;;27.14;35.92;69594.69;5006631;28;45814;-82
2023/06/17 06:29:35;;;;;;;;;12.33;10.67;;;;;27.20;35.90;69582.25;4996198;28;48319;-80
2023/06/17 06:32:00;;;;;;;;;12.67;12.67;;;;;27.17;36.03;69541.22;5003334;28;45446;-80
2023/06/17 06:34:25;;;;;;;;;14.00;13.00;;;;;26.96;35.89;69541.22;4996420;28;45997;-80
2023/06/17 06:36:51;;;;;;;;;10.33;10.33;;;;;27.11;35.94;69621.56;5015195;28;45758;-81
2023/06/17 06:39:16;;;;;;;;;13.33;13.33;;;;;27.08;35.94;69547.38;5013452;28;46301;-80
2023/06/17 06:41:42;;;;;;;;;14.33;11.67;;;;;27.13;36.35;69588.63;5012947;28;45518;-80
2023/06/17 06:44:07;;;;;;;;;13.00;13.00;;;;;27.16;36.30;69529.78;5004041;28;45484;-80
2023/06/17 06:46:33;;;;;;;;;13.00;11.00;;;;;26.92;36.08;69553.31;4977330;28;45623;-81
2023/06/17 06:48:59;;;;;;;;;12.67;12.67;;;;;26.97;36.27;69522.81;4994611;28;46225;-80
2023/06/17 06:51:24;;;;;;;;;13.00;10.00;;;;;27.28;35.97;69584.25;4997111;28;45591;-80
2023/06/17 06:53:50;;;;;;;;;12.33;12.33;;;;;27.14;36.23;69578.97;4996531;28;45400;-80
2023/06/17 06:56:15;;;;;;;;;13.00;12.33;;;;;27.40;35.94;69591.94;5015717;28;45417;-80
2023/06/17 06:58:40;;;;;;;;;10.67;10.67;;;;;27.46;35.30;69601.78;5017722;28;46049;-80
2023/06/17 07:01:06;;;;;;;;;12.00;11.00;;;;;27.42;35.73;69569.84;5009617;28;45512;-81
2023/06/17 07:03:32;;;;;;;;;11.33;11.33;;;;;27.43;35.67;69585.22;5007925;28;45441;-80
2023/06/17 07:05:57;;;;;;;;;12.67;12.33;;;;;27.59;35.82;69590.13;4998048;28;45489;-79
2023/06/17 07:08:24;;;;;;;;;10.67;10.67;;;;;27.48;35.54;69577.59;5003342;28;45406;-79
2023/06/17 07:10:49;;;;;;;;;11.33;11.33;;;;;27.61;35.26;69627.84;5000171;28;45413;-79
2023/06/17 07:13:17;;;;;;;;;8.00;8.00;;;;;27.64;36.01;69606.97;4998156;28;45782;-79
2023/06/17 07:15:43;;;;;;;;;11.33;10.67;;;;;27.67;35.72;69607.81;4981225;28;45778;-79
2023/06/17 07:18:09;;;;;;;;;11.00;9.67;;;;;27.71;35.32;69577.25;5004252;28;45682;-80
2023/06/17 07:20:34;;;;;;;;;10.33;10.33;;;;;27.79;35.90;69626.97;4991386;28;45923;-80
2023/06/17 07:23:00;;;;;;;;;10.00;10.00;;;;;27.86;35.87;69632.03;5004955;28;45556;-79
2023/06/17 07:25:26;;;;;;;;;10.33;10.33;;;;;27.88;35.41;69629.56;4989260;28;45574;-78
2023/06/17 07:27:51;;;;;;;;;10.33;10.33;;;;;27.86;35.73;69602.72;4991773;28;46000;-79
2023/06/17 07:30:17;;;;;;;;;14.00;11.67;;;;;27.83;35.38;69614.84;5007087;28;45464;-79
2023/06/17 07:32:42;;;;;;;;;10.67;10.67;;;;;27.85;35.39;69666.78;5008958;28;45856;-79
2023/06/17 07:35:07;;;;;;;;;13.33;12.33;;;;;27.70;35.50;69589.66;5005154;28;45497;-79
2023/06/17 07:37:33;;;;;;;;;12.33;12.33;;;;;27.59;36.01;69562.97;5000291;28;47244;-79
2023/06/17 07:39:58;;;;;;;;;12.00;12.00;;;;;27.83;35.81;69604.56;5004402;28;45813;-79
2023/06/17 07:42:23;;;;;;;;;10.00;9.33;;;;;27.91;35.77;69591.75;5011935;28;45710;-78
2023/06/17 07:44:49;;;;;;;;;12.67;12.33;;;;;27.83;35.77;69623.00;5007953;28;45493;-79
2023/06/17 07:47:14;;;;;;;;;8.00;6.33;;;;;27.78;35.87;69650.84;5017015;28;46771;-79
2023/06/17 07:49:39;;;;;;;;;10.67;10.67;;;;;28.06;36.09;69617.81;4991833;28;45529;-79
2023/06/17 07:52:05;;;;;;;;;10.67;10.67;;;;;28.03;36.19;69610.94;5012512;28;45502;-79
2023/06/17 07:54:35;;;;;;;;;12.33;12.33;;;;;27.83;35.72;69596.44;5005371;28;45307;-78
2023/06/17 07:57:00;;;;;;;;;12.00;12.00;;;;;28.15;35.72;69617.66;5011801;28;46669;-79
2023/06/17 07:59:25;;;;;;;;;11.00;11.00;;;;;28.14;35.44;69605.00;5011393;28;45540;-79
2023/06/17 08:01:51;;;;;;;;;11.33;11.33;;;;;28.18;35.99;69626.09;4994932;28;47304;-79
2023/06/17 08:04:16;;;;;;;;;11.00;11.00;;;;;28.23;35.83;69613.00;4993833;28;45569;-78
2023/06/17 08:06:41;;;;;;;;;11.00;11.00;;;;;28.22;35.61;69643.88;4995508;28;47347;-78
2023/06/17 08:09:08;;;;;;;;;9.00;9.00;;;;;28.09;35.14;69642.56;5005961;28;45569;-79
2023/06/17 08:11:34;;;;;;;;;12.67;11.00;;;;;28.27;35.33;69614.47;5005520;28;45424;-79
2023/06/17 08:13:59;;;;;;;;;11.33;11.33;;;;;28.19;35.56;69616.41;4998609;28;45451;-78
2023/06/17 08:16:24;;;;;;;;;12.00;11.00;;;;;28.29;35.44;69625.59;5006274;28;46482;-79
2023/06/17 08:18:50;;;;;;;;;11.33;9.67;;;;;28.39;35.19;69653.84;5005062;28;45582;-79
2023/06/17 08:21:16;;;;;;;;;11.33;10.33;;;;;28.35;35.52;69643.66;4982603;28;45401;-78
2023/06/17 08:23:42;;;;;;;;;10.33;10.33;;;;;28.44;35.55;69596.03;5004708;28;45454;-77
2023/06/17 08:26:07;;;;;;;;;9.00;8.00;;;;;28.14;35.82;69583.84;5003265;28;45927;-77
2023/06/17 08:28:32;;;;;;;;;14.33;13.67;;;;;28.70;34.75;69656.97;5000043;28;45549;-77
2023/06/17 08:30:58;;;;;;;;;15.00;12.00;;;;;28.83;34.97;69663.72;5001767;28;45519;-78
2023/06/17 08:33:23;;;;;;;;;10.00;10.00;;;;;28.70;34.73;69661.84;5001643;28;46898;-84
2023/06/17 08:35:48;;;;;;;;;12.00;11.00;;;;;29.05;34.34;69679.06;4984491;28;48504;-77
2023/06/17 08:38:13;;;;;;;;;12.00;11.33;;;;;29.13;34.21;69709.25;5003803;28;47008;-77
2023/06/17 08:40:44;;;;;;;;;12.67;11.00;;;;;29.24;34.74;69695.72;4987359;28;45494;-77
2023/06/17 08:43:10;;;;;;;;;11.33;10.33;;;;;29.08;33.84;69641.22;5007818;28;45671;-77
2023/06/17 08:45:36;;;;;;;;;14.00;11.00;;;;;29.33;33.70;69711.28;4999695;28;46104;-77
2023/06/17 08:48:02;;;;;;;;;11.00;9.00;;;;;29.35;33.51;69743.06;5002058;28;45597;-77
2023/06/17 08:50:28;;;;;;;;;10.00;10.00;;;;;29.59;33.22;69708.97;5007028;28;45467;-77
2023/06/17 08:52:54;;;;;;;;;12.00;10.33;;;;;29.69;33.01;69711.56;4996520;28;45436;-77
2023/06/17 08:55:20;;;;;;;;;11.00;11.00;;;;;29.68;33.52;69675.53;4998636;28;46129;-77
2023/06/17 08:57:49;;;;;;;;;10.33;10.33;;;;;29.89;33.30;69713.59;5007200;28;45776;-77
2023/06/17 09:00:15;;;;;;;;;11.00;10.67;;;;;29.94;33.26;69744.09;4996218;28;45482;-77
2023/06/17 09:02:43;;;;;;;;;11.00;10.00;;;;;30.01;33.54;69776.41;4996327;28;45698;-78
2023/06/17 09:05:09;;;;;;;;;11.33;11.33;;;;;30.09;33.27;69736.84;5000380;28;46620;-77
2023/06/17 09:07:36;;;;;;;;;11.00;10.33;;;;;30.25;33.17;69758.66;4996782;28;45521;-77
2023/06/17 09:10:07;;;;;;;;;11.33;11.33;;;;;30.44;33.02;69804.72;5001142;28;45437;-77
2023/06/17 09:12:39;;;;;;;;;14.00;14.00;;;;;30.38;32.90;69745.69;5000883;28;45545;-77
2023/06/17 09:15:15;;;;;;;;;13.33;12.33;;;;;30.34;32.46;69722.41;4999727;28;46336;-77
2023/06/17 09:17:44;;;;;;;;;12.33;11.00;;;;;30.63;33.03;69830.09;4977319;28;45605;-77
2023/06/17 09:20:12;;;;;;;;;17.00;17.00;;;;;30.72;33.04;69791.09;4996480;28;45753;-77
2023/06/17 09:22:42;;;;;;;;;12.33;12.33;;;;;30.62;33.22;69730.03;5003342;28;45519;-77
2023/06/17 09:25:11;;;;;;;;;15.00;14.33;;;;;30.76;32.78;69759.75;4996623;28;47237;-77
2023/06/17 09:27:44;;;;;;;;;14.33;14.33;;;;;30.97;32.63;69809.41;4998766;28;45508;-77
2023/06/17 09:30:10;;;;;;;;;9.00;9.00;;;;;31.22;32.80;69737.50;4987079;28;45805;-77
2023/06/17 09:32:40;;;;;;;;;13.67;12.67;;;;;31.44;31.97;69782.28;5005507;28;45805;-77
2023/06/17 09:35:07;;;;;;;;;12.67;11.67;;;;;31.76;32.07;69743.25;4985006;28;47189;-77
2023/06/17 09:37:34;;;;;;;;;13.00;13.00;;;;;31.95;32.13;69772.88;4984330;28;45443;-77
2023/06/17 09:39:59;;;;;;;;;15.00;15.00;;;;;32.12;32.10;69757.59;4987813;28;45762;-77
2023/06/17 09:42:30;;;;;;;;;14.00;14.00;;;;;32.44;31.45;69753.41;5006908;28;45542;-77
2023/06/17 09:44:56;;;;;;;;;14.33;13.67;;;;;32.79;32.54;69775.31;4996303;28;45437;-78
2023/06/17 09:47:33;;;;;;;;;15.33;13.33;;;;;33.12;31.38;69774.47;5012469;28;45589;-78
2023/06/17 09:50:06;;;;;;;;;13.00;13.00;;;;;33.54;30.83;69760.78;4987272;28;45468;-78
2023/06/17 09:52:32;;;;;;;;;14.33;14.33;;;;;34.06;30.50;69785.75;5002470;28;45910;-78
2023/06/17 09:54:58;;;;;;;;;16.00;16.00;;;;;34.18;30.31;69824.16;4999811;28;45430;-78
2023/06/17 09:57:31;;;;;;;;;16.00;16.00;;;;;34.51;29.53;69810.03;5005605;28;45436;-78
2023/06/17 10:00:00;;;;;;;;;15.00;14.67;;;;;34.73;29.68;69733.97;5001070;28;47032;-78
2023/06/17 10:02:25;;;;;;;;;16.33;16.33;;;;;35.01;29.52;69782.53;4986901;28;45715;-77
2023/06/17 10:04:52;;;;;;;;;16.33;15.67;;;;;35.42;28.87;69827.91;4997152;28;47035;-78
2023/06/17 10:07:22;;;;;;;;;26.00;22.00;;;;;35.20;28.82;69755.63;4997149;28;45644;-78
2023/06/17 10:09:47;;;;;;;;;16.67;16.33;;;;;35.34;29.05;69757.91;4999326;28;45550;-78
2023/06/17 10:12:14;;;;;;;;;22.00;19.33;;;;;35.41;29.03;69752.47;5000141;28;45499;-78
2023/06/17 10:14:40;;;;;;;;;16.00;16.00;;;;;35.55;28.50;69785.00;4987970;28;48764;-78
2023/06/17 10:17:11;;;;;;;;;15.00;14.00;;;;;35.37;29.36;69793.88;4993583;28;46892;-78
2023/06/17 10:19:38;;;;;;;;;17.33;17.00;;;;;35.47;28.80;69792.59;5003640;28;45539;-78
2023/06/17 10:22:07;;;;;;;;;16.00;16.00;;;;;35.58;29.18;69782.47;5005528;28;45640;-78
2023/06/17 10:24:34;;;;;;;;;19.33;17.33;;;;;35.91;29.26;69810.66;5005690;28;45517;-78
2023/06/17 10:27:06;;;;;;;;;15.33;15.33;;;;;36.09;29.03;69905.22;5002429;28;45480;-78
2023/06/17 10:29:32;;;;;;;;;17.00;16.00;;;;;36.22;28.92;69826.44;4986517;28;45526;-78
2023/06/17 10:32:29;;;;;;;;;17.33;15.67;;;;;36.25;29.03;69819.00;5002204;28;45431;-78
2023/06/17 10:35:06;;;;;;;;;19.00;16.33;;;;;36.72;28.35;69761.22;5002210;28;45873;-78
2023/06/17 10:37:38;;;;;;;;;17.67;16.00;;;;;36.85;27.72;69698.81;5004092;28;45489;-78
2023/06/17 10:40:25;;;;;;;;;14.67;13.33;;;;;37.14;27.38;69787.78;5001690;28;45455;-78
2023/06/17 10:43:00;;;;;;;;;16.67;16.67;;;;;37.32;27.58;69753.38;5002784;28;45716;-78
2023/06/17 10:45:29;;;;;;;;;18.33;18.33;;;;;36.98;27.01;69755.00;5008305;28;46338;-78
2023/06/17 10:48:28;;;;;;;;;17.00;14.33;;;;;37.21;26.85;69743.09;5016685;28;45538;-78
2023/06/17 10:50:58;;;;;;;;;14.67;14.67;;;;;37.35;26.89;69874.97;5003983;28;45485;-78
2023/06/17 10:53:28;;;;;;;;;15.00;15.00;;;;;37.42;27.00;69744.69;5011707;28;45502;-78
2023/06/17 10:55:53;;;;;;;;;13.00;13.00;;;;;37.45;27.12;69768.19;5001798;28;45477;-78
2023/06/17 10:58:18;;;;;;;;;14.33;14.00;;;;;37.52;27.28;69756.56;5000548;28;45462;-78
2023/06/17 11:00:44;;;;;;;;;15.00;15.00;;;;;37.46;27.29;69741.16;5005059;28;45588;-78
2023/06/17 11:03:09;;;;;;;;;17.00;17.00;;;;;37.64;26.38;69717.78;4999236;28;45362;-78
2023/06/17 11:05:36;;;;;;;;;12.00;12.00;;;;;37.52;26.96;69754.41;5001354;28;45408;-78
2023/06/17 11:08:04;;;;;;;;;19.00;17.67;;;;;37.74;27.10;69751.69;5001051;28;45515;-78
2023/06/17 11:10:31;;;;;;;;;20.67;20.33;;;;;37.62;26.89;69685.63;5005546;28;45502;-78
2023/06/17 11:12:56;;;;;;;;;27.00;25.33;;;;;37.92;27.29;69736.53;4983271;28;45618;-78
2023/06/17 11:15:24;;;;;;;;;15.67;15.67;;;;;37.91;26.23;69820.94;5010660;28;46275;-78
2023/06/17 11:18:01;;;;;;;;;13.33;13.33;;;;;37.68;26.88;69780.47;5002744;28;45461;-78
2023/06/17 11:20:28;;;;;;;;;14.67;14.67;;;;;37.43;26.47;69663.69;5006111;28;45785;-78
2023/06/17 11:22:53;;;;;;;;;15.00;13.67;;;;;37.77;26.44;69728.22;4999587;28;45713;-78
2023/06/17 11:25:18;;;;;;;;;16.33;13.67;;;;;37.89;26.02;69666.72;5002154;28;47042;-78
2023/06/17 11:27:45;;;;;;;;;13.67;13.67;;;;;37.93;26.75;69652.09;5003732;28;45538;-78
2023/06/17 11:30:12;;;;;;;;;15.67;15.67;;;;;37.97;26.35;69676.75;5006003;28;45924;-78
2023/06/17 11:32:40;;;;;;;;;15.67;15.67;;;;;37.94;26.68;69669.84;5008004;28;45610;-78
2023/06/17 11:35:08;;;;;;;;;15.33;14.67;;;;;37.87;25.75;69711.28;5012907;28;45467;-78
2023/06/17 11:37:34;;;;;;;;;14.67;14.67;;;;;37.82;24.91;69605.97;5003192;28;45431;-78
2023/06/17 11:40:00;;;;;;;;;14.67;13.67;;;;;37.58;25.57;69650.53;5008937;28;45437;-78
2023/06/17 11:42:25;;;;;;;;;13.67;12.33;;;;;37.55;26.00;69688.97;4980981;28;45627;-78
2023/06/17 11:44:51;;;;;;;;;9.67;9.67;;;;;37.51;25.85;69700.78;4987604;28;46951;-78
2023/06/17 11:47:17;;;;;;;;;12.00;12.00;;;;;37.51;25.73;69664.28;5001636;28;45460;-78
2023/06/17 11:49:44;;;;;;;;;11.00;11.00;;;;;37.62;26.26;69605.56;4993055;28;45545;-78
2023/06/17 11:52:11;;;;;;;;;14.00;14.00;;;;;37.53;25.45;69658.38;4998409;28;45407;-78
2023/06/17 11:54:45;;;;;;;;;12.00;11.67;;;;;37.71;25.94;69701.22;5002061;28;47334;-78
2023/06/17 11:57:16;;;;;;;;;12.67;11.33;;;;;37.69;25.81;69627.66;4985590;28;45446;-78
2023/06/17 11:59:43;;;;;;;;;12.33;11.67;;;;;37.65;25.45;69672.63;4991255;28;45441;-78
2023/06/17 12:02:10;;;;;;;;;12.00;12.00;;;;;37.70;26.22;69614.47;4979438;28;45770;-78
2023/06/17 12:04:35;;;;;;;;;15.00;15.00;;;;;37.59;26.27;69682.66;4996074;28;46336;-78
2023/06/17 12:07:06;;;;;;;;;13.67;13.00;;;;;37.56;26.55;69722.69;5009920;28;45485;-78
2023/06/17 12:09:37;;;;;;;;;17.00;16.00;;;;;37.47;25.77;69687.16;5002517;28;45528;-78
2023/06/17 12:12:04;;;;;;;;;16.33;15.67;;;;;37.24;26.68;69710.78;5006631;28;45459;-78
2023/06/17 12:14:29;;;;;;;;;16.67;16.67;;;;;36.95;26.75;69754.81;5004949;28;46149;-78
2023/06/17 12:16:55;;;;;;;;;17.00;15.33;;;;;36.81;25.92;69757.50;5001687;28;45437;-79
2023/06/17 12:19:22;;;;;;;;;13.00;13.00;;;;;36.90;26.16;69734.50;5006096;28;45513;-78
2023/06/17 12:21:47;;;;;;;;;15.67;14.33;;;;;36.60;26.61;69696.75;5000287;28;45497;-78
2023/06/17 12:24:14;;;;;;;;;17.33;16.33;;;;;36.70;26.97;69775.38;5002850;28;45653;-78
2023/06/17 12:26:40;;;;;;;;;26.00;26.00;;;;;36.61;27.13;69736.53;5012587;28;45788;-78
2023/06/17 12:29:05;;;;;;;;;14.00;13.33;;;;;36.67;27.05;69710.59;5000233;28;45804;-79
2023/06/17 12:31:31;;;;;;;;;18.33;18.33;;;;;36.43;27.21;69704.75;5004399;28;45851;-80
2023/06/17 12:33:56;;;;;;;;;23.33;22.00;;;;;36.58;26.72;69793.59;4985222;28;47500;-80
2023/06/17 12:36:21;;;;;;;;;15.67;14.67;;;;;36.38;26.59;69806.28;4996113;28;45687;-80
2023/06/17 12:38:48;;;;;;;;;16.00;16.00;;;;;36.14;27.31;69790.00;4998093;28;45395;-78
2023/06/17 12:41:14;;;;;;;;;15.00;15.00;;;;;35.94;27.60;69830.13;5003325;28;45497;-78
2023/06/17 12:43:41;;;;;;;;;15.67;14.33;;;;;35.93;27.10;69793.16;5010260;28;47798;-78
2023/06/17 12:46:07;;;;;;;;;15.67;15.67;;;;;36.02;28.14;69806.03;4997826;28;45516;-78
2023/06/17 12:48:35;;;;;;;;;17.33;16.33;;;;;35.76;27.65;69751.56;5008733;28;45517;-78
2023/06/17 12:51:02;;;;;;;;;15.67;15.67;;;;;35.69;28.58;69762.53;5006414;28;45484;-78
2023/06/17 12:53:27;;;;;;;;;13.00;13.00;;;;;35.80;27.86;69772.22;5003870;28;45480;-78
2023/06/17 12:55:55;;;;;;;;;16.67;15.67;;;;;35.76;27.85;69852.81;5013295;28;45359;-78
2023/06/17 12:58:21;;;;;;;;;15.33;15.33;;;;;35.62;28.56;69795.50;5008046;28;45685;-78
2023/06/17 13:00:46;;;;;;;;;15.33;14.00;;;;;35.66;28.92;69833.88;5005319;28;45493;-78
2023/06/17 13:03:12;;;;;;;;;22.33;21.67;;;;;35.56;29.41;69837.88;5003498;28;45446;-78
2023/06/17 13:05:37;;;;;;;;;18.33;18.33;;;;;35.58;29.44;69818.81;5001833;28;45715;-78
2023/06/17 13:08:03;;;;;;;;;16.00;14.33;;;;;35.55;29.82;69864.78;5006677;28;45439;-78
2023/06/17 13:10:28;;;;;;;;;18.67;15.67;;;;;35.23;29.96;69891.19;4995137;28;45525;-78
2023/06/17 13:12:54;;;;;;;;;17.33;17.33;;;;;35.16;29.95;69869.13;5000904;28;45533;-78
2023/06/17 13:15:19;;;;;;;;;15.00;15.00;;;;;34.89;29.94;69934.38;5011295;28;45442;-78
2023/06/17 13:17:45;;;;;;;;;15.67;15.67;;;;;34.72;29.99;69889.41;4992308;28;45459;-78
2023/06/17 13:20:11;;;;;;;;;15.50;14.00;;;;;34.24;30.07;69888.38;5004851;28;45435;-79
2023/06/17 13:22:36;;;;;;;;;16.33;14.67;;;;;34.11;30.96;69857.03;5003002;28;45394;-78
2023/06/17 13:25:06;;;;;;;;;16.33;14.67;;;;;34.16;30.55;69903.56;5011684;28;45475;-78
2023/06/17 13:27:32;;;;;;;;;18.67;16.67;;;;;33.96;30.37;69902.88;5002686;28;45422;-78
2023/06/17 13:29:58;;;;;;;;;14.00;13.67;;;;;33.76;30.64;69882.41;5007689;28;45530;-78
2023/06/17 13:32:24;;;;;;;;;13.67;13.67;;;;;33.74;32.87;69910.22;5005006;28;45913;-78
2023/06/17 13:34:49;;;;;;;;;17.00;16.00;;;;;33.63;31.89;69842.81;4996594;28;45585;-78
2023/06/17 13:37:15;;;;;;;;;13.00;13.00;;;;;33.57;33.50;69862.50;4997362;28;45915;-78
2023/06/17 13:39:40;;;;;;;;;15.33;14.00;;;;;33.09;34.84;69812.03;5001578;28;45467;-78
2023/06/17 13:42:07;;;;;;;;;13.67;12.33;;;;;33.32;32.50;69849.75;4987659;28;48128;-79
2023/06/17 13:44:33;;;;;;;;;14.33;14.00;;;;;33.17;32.51;69879.69;5001412;28;45586;-78
2023/06/17 13:46:58;;;;;;;;;17.00;16.67;;;;;32.93;33.37;69804.50;4997319;28;45507;-78
2023/06/17 13:49:24;;;;;;;;;11.67;11.67;;;;;33.25;32.29;69828.34;5011018;28;45316;-78
2023/06/17 13:51:50;;;;;;;;;14.33;13.67;;;;;33.15;32.14;69844.41;5005301;28;46473;-78
2023/06/17 13:54:18;;;;;;;;;13.67;13.67;;;;;33.38;32.14;69898.06;4995098;28;45489;-78
2023/06/17 13:56:44;;;;;;;;;15.67;15.67;;;;;33.33;32.20;69883.88;4978105;28;45484;-78
2023/06/17 13:59:10;;;;;;;;;17.33;16.00;;;;;33.58;32.30;69874.69;5011714;28;45403;-78
2023/06/17 14:01:35;;;;;;;;;16.67;16.67;;;;;33.56;31.61;69875.63;4982623;28;46002;-78
2023/06/17 14:04:01;;;;;;;;;17.00;17.00;;;;;33.52;31.96;69826.97;5004724;28;45769;-78
2023/06/17 14:06:27;;;;;;;;;16.67;14.33;;;;;33.37;32.30;69907.84;5014720;28;45882;-78
2023/06/17 14:08:52;;;;;;;;;21.00;15.33;;;;;33.52;32.46;69964.09;4985973;28;45678;-78
2023/06/17 14:11:18;;;;;;;;;16.67;15.00;;;;;33.51;32.00;69897.09;4999917;28;45994;-78
2023/06/17 14:13:43;;;;;;;;;15.00;15.00;;;;;33.50;31.85;69865.13;4987751;28;45490;-79
2023/06/17 14:16:09;;;;;;;;;15.33;13.67;;;;;33.11;31.80;69809.53;5000022;28;45578;-79
2023/06/17 14:18:34;;;;;;;;;13.33;13.00;;;;;33.36;31.98;69934.66;4990344;28;45621;-79
2023/06/17 14:20:59;;;;;;;;;13.33;13.00;;;;;33.32;32.45;69866.22;5009977;28;46365;-79
2023/06/17 14:23:25;;;;;;;;;16.33;16.00;;;;;33.04;32.03;69888.88;5005529;28;45434;-79
2023/06/17 14:25:50;;;;;;;;;15.00;15.00;;;;;33.07;33.27;69889.72;4987750;28;45499;-79
2023/06/17 14:28:18;;;;;;;;;15.00;15.00;;;;;32.85;35.63;69817.50;5004730;28;45611;-79
2023/06/17 14:30:44;;;;;;;;;16.00;16.00;;;;;32.99;37.23;69751.34;5003626;28;46499;-78
2023/06/17 14:33:10;;;;;;;;;15.33;15.33;;;;;33.01;34.68;69806.41;5008856;28;45541;-78
2023/06/17 14:35:35;;;;;;;;;16.33;15.00;;;;;33.00;34.08;69793.66;5002695;28;45753;-78
2023/06/17 14:38:00;;;;;;;;;15.67;14.33;;;;;32.99;33.06;69844.53;5005981;28;45588;-78
2023/06/17 14:40:26;;;;;;;;;14.00;14.00;;;;;32.96;34.57;69866.22;5010542;28;47007;-78
2023/06/17 14:42:51;;;;;;;;;16.33;15.33;;;;;32.92;34.04;69852.63;5004457;28;45426;-78
2023/06/17 14:45:16;;;;;;;;;16.67;16.67;;;;;32.78;34.07;69872.19;5005441;28;45366;-78
2023/06/17 14:47:42;;;;;;;;;15.33;14.67;;;;;32.62;34.88;69820.25;4986313;28;46273;-79
2023/06/17 14:50:11;;;;;;;;;18.00;16.33;;;;;32.48;35.72;69804.16;5000509;28;46734;-83
2023/06/17 14:52:36;;;;;;;;;14.00;14.00;;;;;32.42;35.26;69767.47;4985317;28;46176;-81
2023/06/17 14:55:03;;;;;;;;;14.00;13.00;;;;;32.37;36.26;69758.78;5015307;28;45453;-80
2023/06/17 14:57:28;;;;;;;;;18.33;16.33;;;;;32.06;38.58;69501.44;5005255;28;45961;-79
2023/06/17 14:59:54;;;;;;;;;15.67;14.67;;;;;32.00;39.24;69341.09;5010409;28;45470;-79
2023/06/17 15:02:44;;;;;;;;;13.33;12.00;;;;;32.20;40.01;69251.97;5007882;28;45552;-79
2023/06/17 15:05:10;;;;;;;;;15.33;15.33;;;;;32.16;38.73;69381.91;5004046;28;45505;-81
2023/06/17 15:07:35;;;;;;;;;14.00;14.00;;;;;31.92;37.93;69408.78;5004746;28;45522;-79
2023/06/17 15:10:01;;;;;;;;;13.00;11.67;;;;;32.18;37.79;69402.84;5006781;28;45946;-80
2023/06/17 15:12:26;;;;;;;;;11.33;11.33;;;;;32.14;37.52;69420.00;5000129;28;45553;-80
2023/06/17 15:14:53;;;;;;;;;10.67;10.67;;;;;32.17;37.85;69413.22;4999696;28;45497;-79
2023/06/17 15:17:19;;;;;;;;;7.67;7.67;;;;;32.20;37.63;69440.81;5010845;28;45596;-80